Time;durP1;ratioP1;P1;durP2;ratioP2;P2;SDS_P1;SDS_P2;PMS_P1;PMS_P2;Temp;Humidity;BMP_temperature;BMP_pressure;BME280_temperature;BME280_humidity;BME280_pressure;Samples;Min_cycle;Max_cycle;Signal;HPM_P1;HPM_P2
2024/01/12 00:01:59;;;;;;;6.03;4.40;;;;;;;;;;5002605;28;20564;-54
2024/01/12 00:04:26;;;;;;;5.70;4.30;;;;;;;;;;5007770;28;20045;-54
2024/01/12 00:06:51;;;;;;;4.78;4.10;;;;;;;;;;5021956;28;20034;-53
2024/01/12 00:09:16;;;;;;;5.88;4.22;;;;;;;;;;5007368;28;20100;-56
2024/01/12 00:11:42;;;;;;;5.78;3.92;;;;;;;;;;5002491;28;20113;-53
2024/01/12 00:14:07;;;;;;;6.45;4.13;;;;;;;;;;5003166;28;20427;-54
2024/01/12 00:16:33;;;;;;;6.25;4.18;;;;;;;;;;5013381;28;20036;-54
2024/01/12 00:18:58;;;;;;;5.68;4.25;;;;;;;;;;5009254;28;20051;-55
2024/01/12 00:21:23;;;;;;;5.35;4.22;;;;;;;;;;5002472;28;20065;-54
2024/01/12 00:23:49;;;;;;;6.43;4.40;;;;;;;;;;4997864;28;20050;-54
2024/01/12 00:26:14;;;;;;;5.70;4.18;;;;;;;;;;5021842;28;20539;-54
2024/01/12 00:28:39;;;;;;;5.45;3.85;;;;;;;;;;5010776;28;20034;-54
2024/01/12 00:31:05;;;;;;;6.60;4.55;;;;;;;;;;4982614;28;20042;-55
2024/01/12 00:33:30;;;;;;;6.00;4.47;;;;;;;;;;4997114;28;20058;-54
2024/01/12 00:35:55;;;;;;;5.80;4.50;;;;;;;;;;5000536;28;20063;-54
2024/01/12 00:38:20;;;;;;;6.25;4.55;;;;;;;;;;5015600;28;20037;-54
2024/01/12 00:40:46;;;;;;;6.47;4.45;;;;;;;;;;5006323;28;20026;-56
2024/01/12 00:43:11;;;;;;;6.00;4.20;;;;;;;;;;5005534;28;20456;-54
2024/01/12 00:45:37;;;;;;;6.35;4.72;;;;;;;;;;4985276;28;20042;-54
2024/01/12 00:48:02;;;;;;;7.60;4.93;;;;;;;;;;5002428;28;20034;-53
2024/01/12 00:50:27;;;;;;;6.68;4.60;;;;;;;;;;5002761;28;20030;-55
2024/01/12 00:52:54;;;;;;;5.72;4.63;;;;;;;;;;5002545;28;20030;-53
2024/01/12 00:55:19;;;;;;;6.10;4.47;;;;;;;;;;5002714;28;20034;-56
2024/01/12 00:57:44;;;;;;;5.40;4.43;;;;;;;;;;5002683;28;20582;-53
2024/01/12 01:03:12;;;;;;;5.88;4.45;;;;;;;;;;4995722;23;20224;-53
2024/01/12 01:05:38;;;;;;;6.32;4.47;;;;;;;;;;5017187;28;20053;-53
2024/01/12 01:10:28;;;;;;;5.80;4.45;;;;;;;;;;5030598;23;20050;-70
2024/01/12 01:12:53;;;;;;;6.78;5.18;;;;;;;;;;4996891;28;20471;-69
2024/01/12 01:15:19;;;;;;;6.05;4.85;;;;;;;;;;5008116;28;20073;-70
2024/01/12 01:17:45;;;;;;;6.13;4.93;;;;;;;;;;5011493;28;20135;-69
2024/01/12 01:20:11;;;;;;;6.18;4.57;;;;;;;;;;5017354;28;20100;-69
2024/01/12 01:25:25;;;;;;;6.78;4.72;;;;;;;;;;5034359;23;20312;-54
2024/01/12 01:27:54;;;;;;;6.25;4.43;;;;;;;;;;5029855;28;20572;-54
2024/01/12 01:30:21;;;;;;;5.40;4.57;;;;;;;;;;5006107;28;20037;-55
2024/01/12 01:32:54;;;;;;;6.40;4.80;;;;;;;;;;5022740;28;20421;-53
2024/01/12 01:35:20;;;;;;;8.00;5.43;;;;;;;;;;5002629;28;20037;-53
2024/01/12 01:37:53;;;;;;;6.05;4.32;;;;;;;;;;5030753;28;20025;-54
2024/01/12 01:40:20;;;;;;;6.07;4.70;;;;;;;;;;5015978;28;20440;-55
2024/01/12 01:42:46;;;;;;;6.13;4.53;;;;;;;;;;5025857;28;20029;-53
2024/01/12 01:45:15;;;;;;;6.70;5.00;;;;;;;;;;5019264;28;20041;-53
2024/01/12 01:48:04;;;;;;;5.78;4.55;;;;;;;;;;5006108;28;20030;-54
2024/01/12 01:50:33;;;;;;;5.43;4.65;;;;;;;;;;4996117;28;20037;-54
2024/01/12 01:53:11;;;;;;;5.70;4.38;;;;;;;;;;4996217;28;20044;-54
2024/01/12 01:55:55;;;;;;;6.00;4.82;;;;;;;;;;4966641;28;20042;-54
2024/01/12 01:59:15;;;;;;;5.80;4.50;;;;;;;;;;5012794;28;20124;-53
2024/01/12 02:02:45;;;;;;;5.78;4.70;;;;;;;;;;4987988;28;20130;-53
2024/01/12 02:12:28;;;;;;;5.97;4.85;;;;;;;;;;5017445;28;20036;-54
2024/01/12 02:15:12;;;;;;;6.38;4.90;;;;;;;;;;4984752;23;20137;-51
2024/01/12 02:17:53;;;;;;;5.78;4.45;;;;;;;;;;4268920;28;21029827;-53
2024/01/12 02:20:22;;;;;;;5.97;4.63;;;;;;;;;;4981606;28;20493;-55
2024/01/12 02:22:50;;;;;;;5.90;4.80;;;;;;;;;;4990511;28;20548;-53
2024/01/12 02:25:44;;;;;;;6.05;4.63;;;;;;;;;;4986412;28;20065;-54
2024/01/12 02:28:22;;;;;;;5.93;4.50;;;;;;;;;;5005938;28;20506;-53
2024/01/12 02:31:09;;;;;;;5.32;4.45;;;;;;;;;;5015981;28;20056;-53
2024/01/12 02:34:00;;;;;;;5.93;4.82;;;;;;;;;;5022495;28;20045;-54
2024/01/12 02:36:46;;;;;;;6.00;4.53;;;;;;;;;;5035775;28;20047;-52
2024/01/12 02:39:14;;;;;;;6.32;4.90;;;;;;;;;;5008435;28;20052;-53
2024/01/12 02:42:08;;;;;;;5.70;4.60;;;;;;;;;;5051803;28;20016;-55
2024/01/12 02:44:45;;;;;;;6.38;5.00;;;;;;;;;;5017972;28;20047;-55
2024/01/12 02:47:17;;;;;;;5.18;4.10;;;;;;;;;;5023385;28;20045;-53
2024/01/12 02:49:47;;;;;;;6.00;4.60;;;;;;;;;;5042750;28;20041;-53
2024/01/12 02:52:25;;;;;;;5.72;4.50;;;;;;;;;;5020776;28;20037;-53
2024/01/12 02:55:02;;;;;;;6.40;4.63;;;;;;;;;;5015318;28;20041;-53
2024/01/12 02:57:37;;;;;;;6.05;4.57;;;;;;;;;;4993303;28;20053;-53
2024/01/12 03:00:05;;;;;;;5.50;4.45;;;;;;;;;;5025909;28;20028;-53
2024/01/12 03:02:40;;;;;;;5.93;4.65;;;;;;;;;;5015829;28;20135;-53
2024/01/12 03:05:42;;;;;;;5.93;4.72;;;;;;;;;;5011398;28;20084;-52
2024/01/12 03:08:15;;;;;;;6.18;4.57;;;;;;;;;;5020144;28;20041;-54
2024/01/12 03:11:16;;;;;;;6.05;4.80;;;;;;;;;;5022214;28;20075;-55
2024/01/12 03:13:41;;;;;;;6.15;4.78;;;;;;;;;;5013535;28;20032;-53
2024/01/12 03:16:16;;;;;;;5.75;4.30;;;;;;;;;;5044277;28;20051;-55
2024/01/12 03:19:04;;;;;;;5.88;4.68;;;;;;;;;;5039130;28;20139;-53
2024/01/12 03:21:33;;;;;;;5.25;4.57;;;;;;;;;;5024106;28;20037;-54
2024/01/12 03:23:58;;;;;;;6.10;4.50;;;;;;;;;;5024200;28;20048;-53
2024/01/12 03:26:23;;;;;;;5.30;4.25;;;;;;;;;;5012369;28;20508;-53
2024/01/12 03:28:54;;;;;;;5.32;4.63;;;;;;;;;;5008260;28;20033;-53
2024/01/12 03:31:26;;;;;;;;;;;;;;;;;;5031071;28;20199;-53
2024/01/12 03:34:09;;;;;;;5.57;4.45;;;;;;;;;;5033116;28;19913;-53
2024/01/12 03:36:42;;;;;;;5.53;4.47;;;;;;;;;;5028190;28;20030;-53
2024/01/12 03:39:07;;;;;;;6.25;4.70;;;;;;;;;;5035400;28;20037;-54
2024/01/12 03:41:35;;;;;;;5.55;4.22;;;;;;;;;;5022175;28;20045;-54
2024/01/12 03:44:21;;;;;;;6.43;4.68;;;;;;;;;;5031690;28;20052;-53
2024/01/12 03:46:46;;;;;;;5.60;4.25;;;;;;;;;;5038065;28;20509;-53
2024/01/12 03:49:33;;;;;;;6.25;4.38;;;;;;;;;;5027941;28;20046;-53
2024/01/12 03:52:00;;;;;;;5.43;4.55;;;;;;;;;;5027833;28;20037;-53
2024/01/12 03:54:35;;;;;;;6.60;4.32;;;;;;;;;;5033244;28;20045;-53
2024/01/12 03:57:05;;;;;;;5.72;4.10;;;;;;;;;;5030488;28;20109;-53
2024/01/12 04:00:07;;;;;;;6.32;4.57;;;;;;;;;;5037419;28;20045;-54
2024/01/12 04:02:40;;;;;;;5.40;4.35;;;;;;;;;;5031835;28;20037;-53
2024/01/12 04:05:15;;;;;;;5.57;4.47;;;;;;;;;;5027254;28;20083;-54
2024/01/12 04:07:50;;;;;;;6.05;4.47;;;;;;;;;;5022478;28;20029;-54
2024/01/12 04:10:27;;;;;;;6.53;4.53;;;;;;;;;;5016872;28;20502;-53
2024/01/12 04:13:13;;;;;;;5.03;4.50;;;;;;;;;;5035193;28;20527;-54
2024/01/12 04:15:43;;;;;;;6.45;4.50;;;;;;;;;;5016282;28;20157;-53
2024/01/12 04:18:13;;;;;;;5.57;4.35;;;;;;;;;;5025280;28;20087;-54
2024/01/12 04:26:52;;;;;;;5.72;3.90;;;;;;;;;;4927250;28;20054;-53
2024/01/12 04:29:58;;;;;;;5.28;4.05;;;;;;;;;;4964348;28;20031;-53
2024/01/12 04:32:22;;;;;;;5.25;4.25;;;;;;;;;;4973532;28;20080;-54
2024/01/12 04:34:55;;;;;;;6.28;4.20;;;;;;;;;;4968554;28;20126;-53
2024/01/12 04:37:38;;;;;;;5.00;4.00;;;;;;;;;;4974644;28;20038;-53
2024/01/12 04:40:11;;;;;;;6.70;3.95;;;;;;;;;;4980201;28;20034;-54
2024/01/12 04:52:07;;;;;;;5.65;4.40;;;;;;;;;;4820940;29;20066;-55
2024/01/12 04:58:07;;;;;;;5.57;4.10;;;;;;;;;;4869998;29;20137;-53
2024/01/12 05:00:36;;;;;;;5.40;4.18;;;;;;;;;;4917273;28;20416;-54
2024/01/12 05:03:12;;;;;;;5.28;4.35;;;;;;;;;;4927525;28;20031;-53
2024/01/12 05:05:37;;;;;;;5.25;4.18;;;;;;;;;;4920867;28;20146;-53
2024/01/12 05:08:08;;;;;;;5.97;4.50;;;;;;;;;;4963482;28;20400;-53
2024/01/12 05:13:42;;;;;;;5.13;3.90;;;;;;;;;;4964880;28;20034;-53
2024/01/12 05:16:08;;;;;;;6.00;4.28;;;;;;;;;;4957065;28;20466;-55
2024/01/12 05:18:53;;;;;;;5.20;4.15;;;;;;;;;;5011853;28;20073;-55
2024/01/12 05:21:21;;;;;;;5.32;4.18;;;;;;;;;;5040532;28;20040;-53
2024/01/12 05:23:58;;;;;;;5.85;4.20;;;;;;;;;;5037631;28;20122;-54
2024/01/12 05:48:34;;;;;;;5.65;4.05;;;;;;;;;;4980530;28;20427;-54
2024/01/12 05:54:33;;;;;;;5.43;4.35;;;;;;;;;;4968950;28;20084;-55
2024/01/12 05:57:14;;;;;;;4.70;3.95;;;;;;;;;;4972448;28;20046;-53
2024/01/12 06:00:07;;;;;;;5.30;4.07;;;;;;;;;;4967203;28;20042;-53
2024/01/12 06:02:56;;;;;;;10.77;8.07;;;;;;;;;;4977378;28;20046;-54
2024/01/12 06:05:45;;;;;;;8.15;4.70;;;;;;;;;;4990009;28;20060;-54
2024/01/12 06:08:20;;;;;;;6.22;4.60;;;;;;;;;;5001163;28;20030;-54
2024/01/12 06:11:03;;;;;;;5.95;4.32;;;;;;;;;;4996768;28;20045;-54
2024/01/12 06:13:45;;;;;;;5.22;3.95;;;;;;;;;;5000473;28;20367;-53
2024/01/12 06:19:25;;;;;;;5.22;4.20;;;;;;;;;;4986513;28;20053;-54
2024/01/12 06:22:13;;;;;;;5.05;3.90;;;;;;;;;;4992681;28;20065;-53
2024/01/12 06:24:43;;;;;;;5.88;4.10;;;;;;;;;;5018556;28;20037;-54
2024/01/12 06:27:16;;;;;;;5.78;4.13;;;;;;;;;;5043843;28;20025;-53
2024/01/12 06:29:53;;;;;;;5.05;4.18;;;;;;;;;;5015013;28;20056;-54
2024/01/12 06:32:21;;;;;;;5.45;3.90;;;;;;;;;;5041140;28;20041;-54
2024/01/12 06:34:56;;;;;;;5.85;4.03;;;;;;;;;;5040578;28;20085;-54
2024/01/12 06:37:24;;;;;;;5.32;3.90;;;;;;;;;;5041473;28;20037;-55
2024/01/12 06:39:58;;;;;;;5.85;4.05;;;;;;;;;;5032608;28;20524;-55
2024/01/12 06:42:31;;;;;;;6.22;4.10;;;;;;;;;;5040766;28;20404;-54
2024/01/12 06:45:07;;;;;;;5.45;4.10;;;;;;;;;;5037357;28;20044;-53
2024/01/12 06:47:32;;;;;;;5.05;4.00;;;;;;;;;;5034569;28;20048;-55
2024/01/12 06:54:07;;;;;;;4.95;3.90;;;;;;;;;;4982594;28;20684;-54
2024/01/12 07:03:44;;;;;;;5.60;3.92;;;;;;;;;;4871291;29;20417;-53
2024/01/12 07:06:21;;;;;;;5.45;4.13;;;;;;;;;;4876024;29;20060;-53
2024/01/12 07:09:12;;;;;;;5.88;4.32;;;;;;;;;;4881773;29;20040;-55
2024/01/12 07:14:39;;;;;;;5.90;4.22;;;;;;;;;;4922391;28;20051;-54
2024/01/12 07:17:06;;;;;;;5.57;4.22;;;;;;;;;;4957291;28;20139;-54
2024/01/12 07:19:49;;;;;;;6.03;4.50;;;;;;;;;;4985879;28;20120;-54
2024/01/12 07:22:14;;;;;;;5.70;4.03;;;;;;;;;;4995304;28;20057;-53
2024/01/12 07:24:42;;;;;;;5.07;4.20;;;;;;;;;;5032178;28;20417;-55
2024/01/12 07:30:19;;;;;;;7.68;4.90;;;;;;;;;;5019590;28;20469;-54
2024/01/12 07:33:23;;;;;;;6.20;4.20;;;;;;;;;;5034394;28;20416;-54
2024/01/12 07:36:13;;;;;;;5.55;3.72;;;;;;;;;;4995254;28;20037;-55
2024/01/12 07:38:41;;;;;;;5.28;3.90;;;;;;;;;;5014483;28;20036;-53
2024/01/12 07:41:21;;;;;;;5.45;3.85;;;;;;;;;;5042900;28;20045;-54
2024/01/12 07:43:55;;;;;;;6.53;3.97;;;;;;;;;;5039481;28;20040;-54
2024/01/12 07:46:21;;;;;;;8.18;4.35;;;;;;;;;;5050519;22;20053;-79
2024/01/12 07:48:51;;;;;;;4.90;3.90;;;;;;;;;;5002226;28;20038;-76
2024/01/12 07:51:16;;;;;;;5.60;4.18;;;;;;;;;;5026615;28;20424;-78
2024/01/12 07:53:44;;;;;;;6.78;4.57;;;;;;;;;;5031007;28;20057;-78
2024/01/12 07:56:09;;;;;;;6.00;4.20;;;;;;;;;;5011768;28;20128;-78
2024/01/12 07:58:35;;;;;;;5.43;3.95;;;;;;;;;;5024950;28;20079;-77
2024/01/12 08:01:00;;;;;;;5.80;4.13;;;;;;;;;;5028058;28;20025;-74
2024/01/12 08:03:26;;;;;;;6.32;4.20;;;;;;;;;;5018677;28;20132;-73
2024/01/12 08:05:51;;;;;;;5.32;3.80;;;;;;;;;;5029989;28;20053;-73
2024/01/12 08:08:17;;;;;;;5.93;4.32;;;;;;;;;;5023334;28;20042;-73
2024/01/12 08:10:42;;;;;;;5.50;4.10;;;;;;;;;;5025544;28;20512;-73
2024/01/12 08:13:08;;;;;;;5.78;3.75;;;;;;;;;;5026721;28;20412;-74
2024/01/12 08:15:33;;;;;;;5.93;4.05;;;;;;;;;;5032209;28;20536;-73
2024/01/12 08:17:59;;;;;;;5.60;4.35;;;;;;;;;;5015160;28;20038;-74
2024/01/12 08:20:24;;;;;;;5.80;4.07;;;;;;;;;;5004877;28;20041;-72
2024/01/12 08:22:49;;;;;;;6.57;4.55;;;;;;;;;;5012254;28;20033;-75
2024/01/12 08:25:15;;;;;;;6.05;4.40;;;;;;;;;;5021095;28;20034;-73
2024/01/12 08:27:40;;;;;;;7.40;4.25;;;;;;;;;;5026751;28;20034;-74
2024/01/12 08:30:07;;;;;;;6.25;4.40;;;;;;;;;;5035188;28;20033;-73
2024/01/12 08:32:32;;;;;;;6.43;4.53;;;;;;;;;;5033489;28;20037;-72
2024/01/12 08:34:57;;;;;;;6.25;4.50;;;;;;;;;;5034797;28;20029;-74
2024/01/12 08:37:23;;;;;;;7.00;4.60;;;;;;;;;;5017237;28;20112;-74
2024/01/12 08:39:48;;;;;;;6.43;4.47;;;;;;;;;;5032698;28;20535;-75
2024/01/12 08:42:14;;;;;;;5.95;4.68;;;;;;;;;;5026439;28;20034;-74
2024/01/12 08:44:39;;;;;;;6.32;4.47;;;;;;;;;;5023148;28;20503;-73
2024/01/12 08:47:06;;;;;;;6.88;4.40;;;;;;;;;;5027591;28;20117;-73
2024/01/12 08:49:31;;;;;;;6.25;4.53;;;;;;;;;;5035885;28;20076;-74
2024/01/12 08:51:58;;;;;;;7.22;4.82;;;;;;;;;;5030623;28;20146;-74
2024/01/12 08:54:25;;;;;;;5.85;4.72;;;;;;;;;;5025627;28;20030;-73
2024/01/12 08:56:50;;;;;;;6.72;4.55;;;;;;;;;;5033002;28;20128;-73
2024/01/12 08:59:16;;;;;;;6.78;4.78;;;;;;;;;;5037410;28;20457;-73
2024/01/12 09:01:41;;;;;;;6.35;4.75;;;;;;;;;;5024630;28;20141;-73
2024/01/12 09:04:06;;;;;;;6.95;4.72;;;;;;;;;;5010550;28;20119;-75
2024/01/12 09:06:32;;;;;;;7.05;4.85;;;;;;;;;;5032863;28;20041;-73
2024/01/12 09:08:57;;;;;;;6.50;4.63;;;;;;;;;;5035305;28;20038;-85
2024/01/12 09:11:23;;;;;;;7.85;5.47;;;;;;;;;;5033332;28;20089;-74
2024/01/12 09:13:48;;;;;;;6.85;4.93;;;;;;;;;;5035723;28;20115;-82
2024/01/12 09:16:14;;;;;;;7.03;4.78;;;;;;;;;;5017445;28;20051;-74
2024/01/12 09:18:39;;;;;;;6.30;4.78;;;;;;;;;;5034655;28;20033;-73
2024/01/12 09:21:07;;;;;;;6.47;4.75;;;;;;;;;;5030887;28;20038;-73
2024/01/12 09:23:33;;;;;;;6.47;4.90;;;;;;;;;;5032293;28;20116;-73
2024/01/12 09:26:00;;;;;;;6.65;5.18;;;;;;;;;;5034428;28;20046;-74
2024/01/12 09:28:25;;;;;;;7.30;5.07;;;;;;;;;;5037232;28;20029;-74
2024/01/12 09:30:51;;;;;;;6.80;4.75;;;;;;;;;;5015866;28;20365;-73
2024/01/12 09:33:16;;;;;;;6.55;4.60;;;;;;;;;;5033494;28;20041;-73
2024/01/12 09:35:41;;;;;;;8.23;5.03;;;;;;;;;;5034420;28;20033;-72
2024/01/12 09:38:08;;;;;;;7.15;4.97;;;;;;;;;;5035633;28;20096;-73
2024/01/12 09:40:33;;;;;;;7.47;4.80;;;;;;;;;;5034847;28;20052;-73
2024/01/12 09:42:59;;;;;;;7.88;5.47;;;;;;;;;;5016596;28;20037;-72
2024/01/12 09:45:24;;;;;;;7.20;5.22;;;;;;;;;;5034217;28;20068;-72
2024/01/12 09:47:50;;;;;;;6.72;4.75;;;;;;;;;;5034764;28;20045;-75
2024/01/12 09:50:15;;;;;;;7.32;5.20;;;;;;;;;;5023834;28;20491;-73
2024/01/12 09:52:40;;;;;;;7.88;5.60;;;;;;;;;;5039378;28;20033;-72
2024/01/12 09:55:07;;;;;;;7.03;5.22;;;;;;;;;;5022164;28;20057;-72
2024/01/12 09:57:33;;;;;;;7.85;5.43;;;;;;;;;;5031477;28;20048;-72
2024/01/12 10:00:02;;;;;;;7.03;5.32;;;;;;;;;;5030989;28;20044;-73
2024/01/12 10:02:27;;;;;;;7.00;5.05;;;;;;;;;;5032396;28;20045;-73
2024/01/12 10:04:52;;;;;;;8.05;5.40;;;;;;;;;;5032612;28;20036;-75
2024/01/12 10:07:18;;;;;;;7.07;5.25;;;;;;;;;;5029089;28;20049;-74
2024/01/12 10:09:43;;;;;;;7.13;5.40;;;;;;;;;;5030239;28;20393;-75
2024/01/12 10:12:08;;;;;;;8.60;5.80;;;;;;;;;;5034941;28;20033;-74
2024/01/12 10:14:35;;;;;;;7.90;5.70;;;;;;;;;;5048650;28;20036;-75
2024/01/12 10:17:00;;;;;;;7.35;5.75;;;;;;;;;;5041432;28;20108;-75
2024/01/12 10:19:26;;;;;;;7.75;5.57;;;;;;;;;;5042837;28;20048;-75
2024/01/12 10:21:51;;;;;;;7.35;5.53;;;;;;;;;;5036271;28;20032;-76
2024/01/12 10:24:17;;;;;;;8.63;5.95;;;;;;;;;;5033321;28;20052;-75
2024/01/12 10:26:43;;;;;;;7.90;5.60;;;;;;;;;;5035239;28;20041;-74
2024/01/12 10:29:08;;;;;;;9.40;6.00;;;;;;;;;;5033775;28;20563;-82
2024/01/12 10:31:43;;;;;;;8.10;5.93;;;;;;;;;;5039136;28;20717;-76
2024/01/12 10:34:12;;;;;;;10.10;5.90;;;;;;;;;;5031956;28;20073;-77
2024/01/12 10:36:38;;;;;;;7.35;5.47;;;;;;;;;;5023692;28;20124;-75
2024/01/12 10:39:04;;;;;;;8.68;6.03;;;;;;;;;;5031763;28;20021;-76
2024/01/12 10:41:29;;;;;;;8.52;5.85;;;;;;;;;;5031322;28;20020;-77
2024/01/12 10:43:57;;;;;;;8.73;5.90;;;;;;;;;;5030685;28;20400;-76
2024/01/12 10:46:24;;;;;;;8.82;6.22;;;;;;;;;;5032902;28;20088;-77
2024/01/12 10:49:00;;;;;;;8.45;5.88;;;;;;;;;;5035090;28;20013;-78
2024/01/12 10:51:25;;;;;;;9.48;6.47;;;;;;;;;;5038460;28;20033;-77
2024/01/12 10:54:00;;;;;;;8.13;6.20;;;;;;;;;;5033295;28;20036;-75
2024/01/12 10:56:27;;;;;;;9.00;5.85;;;;;;;;;;5033792;28;20084;-77
2024/01/12 10:58:52;;;;;;;8.57;6.50;;;;;;;;;;5016452;28;20044;-80
2024/01/12 11:01:17;;;;;;;8.60;6.30;;;;;;;;;;5027823;28;20113;-79
2024/01/12 11:03:43;;;;;;;10.32;6.32;;;;;;;;;;5033852;28;20577;-75
2024/01/12 11:06:08;;;;;;;9.50;6.72;;;;;;;;;;5015048;28;20084;-76
2024/01/12 11:08:34;;;;;;;9.55;6.85;;;;;;;;;;5031534;28;20025;-77
2024/01/12 11:10:59;;;;;;;9.10;6.88;;;;;;;;;;5032434;28;20414;-78
2024/01/12 11:13:25;;;;;;;9.60;6.68;;;;;;;;;;5025414;28;20041;-76
2024/01/12 11:15:51;;;;;;;9.07;6.65;;;;;;;;;;5033886;28;20044;-77
2024/01/12 11:18:16;;;;;;;9.15;6.78;;;;;;;;;;5030795;28;20041;-74
2024/01/12 11:20:44;;;;;;;9.80;6.55;;;;;;;;;;5032057;28;20059;-76
2024/01/12 11:23:09;;;;;;;8.98;6.80;;;;;;;;;;5031426;28;20044;-75
2024/01/12 11:25:35;;;;;;;10.63;6.82;;;;;;;;;;5015694;28;20037;-76
2024/01/12 11:28:01;;;;;;;8.98;6.57;;;;;;;;;;5032778;28;20045;-76
2024/01/12 11:30:28;;;;;;;11.02;7.25;;;;;;;;;;5008451;28;20121;-77
2024/01/12 11:33:00;;;;;;;10.63;6.25;;;;;;;;;;5010886;28;20029;-77
2024/01/12 11:35:26;;;;;;;9.57;7.00;;;;;;;;;;5026711;28;20045;-77
2024/01/12 11:38:01;;;;;;;9.27;6.38;;;;;;;;;;5028858;28;20193;-74
2024/01/12 11:40:27;;;;;;;10.70;6.82;;;;;;;;;;5030511;28;20037;-77
2024/01/12 11:42:52;;;;;;;9.10;6.63;;;;;;;;;;5029229;28;20113;-77
2024/01/12 11:45:18;;;;;;;9.57;6.47;;;;;;;;;;5034404;28;20038;-75
2024/01/12 11:47:43;;;;;;;9.40;6.50;;;;;;;;;;5035137;28;20045;-80
2024/01/12 11:50:09;;;;;;;9.82;6.30;;;;;;;;;;5021183;28;20034;-76
2024/01/12 11:52:36;;;;;;;10.13;6.85;;;;;;;;;;5030744;28;20047;-80
2024/01/12 11:55:02;;;;;;;10.32;6.47;;;;;;;;;;5039587;28;20029;-79
2024/01/12 11:57:27;;;;;;;9.35;6.75;;;;;;;;;;5031213;28;20471;-81
2024/01/12 11:59:55;;;;;;;9.93;6.82;;;;;;;;;;5027745;28;20100;-73
2024/01/12 12:02:21;;;;;;;10.13;6.97;;;;;;;;;;5025250;28;20045;-71
2024/01/12 12:04:47;;;;;;;9.13;6.47;;;;;;;;;;5025616;28;20116;-72
2024/01/12 12:07:13;;;;;;;10.13;7.15;;;;;;;;;;5029502;28;20120;-73
2024/01/12 12:09:38;;;;;;;9.52;6.93;;;;;;;;;;5015540;28;20061;-72
2024/01/12 12:12:06;;;;;;;9.80;6.57;;;;;;;;;;5025735;28;20030;-72
2024/01/12 12:14:31;;;;;;;9.38;6.80;;;;;;;;;;5027318;28;20507;-73
2024/01/12 12:16:56;;;;;;;9.63;6.82;;;;;;;;;;5036089;28;20095;-71
2024/01/12 12:19:22;;;;;;;11.57;6.85;;;;;;;;;;5042766;28;20165;-71
2024/01/12 12:21:48;;;;;;;11.20;7.35;;;;;;;;;;5038450;28;20086;-73
2024/01/12 12:24:15;;;;;;;10.05;7.00;;;;;;;;;;5037209;28;20534;-73
2024/01/12 12:26:41;;;;;;;8.90;6.60;;;;;;;;;;5034286;28;20049;-73
2024/01/12 12:29:06;;;;;;;9.32;7.05;;;;;;;;;;5036592;28;20125;-74
2024/01/12 12:31:32;;;;;;;10.13;7.03;;;;;;;;;;5033617;28;20037;-72
2024/01/12 12:33:57;;;;;;;10.70;7.32;;;;;;;;;;5035722;28;20034;-73
2024/01/12 12:36:23;;;;;;;10.88;7.35;;;;;;;;;;5030563;28;20508;-72
2024/01/12 12:38:48;;;;;;;10.60;7.22;;;;;;;;;;5032034;28;20033;-73
2024/01/12 12:41:13;;;;;;;9.75;7.07;;;;;;;;;;5027819;28;20041;-72
2024/01/12 12:43:40;;;;;;;11.52;7.70;;;;;;;;;;5029295;28;20030;-73
2024/01/12 12:46:05;;;;;;;10.55;7.20;;;;;;;;;;5027501;28;20041;-75
2024/01/12 12:48:31;;;;;;;10.68;7.28;;;;;;;;;;5011401;28;20037;-72
2024/01/12 12:50:56;;;;;;;10.25;7.07;;;;;;;;;;5026939;28;20041;-73
2024/01/12 12:53:22;;;;;;;11.07;7.75;;;;;;;;;;5028883;28;20115;-73
2024/01/12 12:55:48;;;;;;;11.68;7.75;;;;;;;;;;5027937;28;20153;-73
2024/01/12 12:58:13;;;;;;;10.43;7.43;;;;;;;;;;5036924;22;20052;-53
2024/01/12 13:00:39;;;;;;;11.43;7.63;;;;;;;;;;5021167;28;20432;-56
2024/01/12 13:03:04;;;;;;;11.05;7.53;;;;;;;;;;5023821;28;20033;-55
2024/01/12 13:05:30;;;;;;;13.27;8.02;;;;;;;;;;5022102;28;20377;-56
2024/01/12 13:07:55;;;;;;;12.85;8.63;;;;;;;;;;5044416;28;20056;-56
2024/01/12 13:10:21;;;;;;;11.98;8.18;;;;;;;;;;5039722;28;20037;-56
2024/01/12 13:12:46;;;;;;;13.90;8.55;;;;;;;;;;5045987;28;20048;-54
2024/01/12 13:15:11;;;;;;;11.57;7.90;;;;;;;;;;5026758;28;20041;-55
2024/01/12 13:17:37;;;;;;;10.27;7.80;;;;;;;;;;5044309;28;20124;-53
2024/01/12 13:20:03;;;;;;;11.20;7.93;;;;;;;;;;5043967;28;20411;-54
2024/01/12 13:22:29;;;;;;;10.75;8.02;;;;;;;;;;5026816;28;20061;-54
2024/01/12 13:24:54;;;;;;;12.00;7.75;;;;;;;;;;5043159;28;20065;-54
2024/01/12 13:27:19;;;;;;;11.45;8.00;;;;;;;;;;5025021;28;20452;-54
2024/01/12 13:29:45;;;;;;;10.38;7.80;;;;;;;;;;5041834;28;20037;-55
2024/01/12 13:32:10;;;;;;;12.73;8.63;;;;;;;;;;5045801;28;20473;-55
2024/01/12 13:34:36;;;;;;;12.60;8.55;;;;;;;;;;5029516;28;20452;-53
2024/01/12 13:37:02;;;;;;;21.88;13.77;;;;;;;;;;5048515;28;20037;-55
2024/01/12 13:39:27;;;;;;;12.45;8.82;;;;;;;;;;5025337;28;20055;-53
2024/01/12 13:41:53;;;;;;;13.73;9.50;;;;;;;;;;5048414;28;20408;-52
2024/01/12 13:44:18;;;;;;;12.30;8.95;;;;;;;;;;5028860;28;20049;-51
2024/01/12 13:46:43;;;;;;;14.43;9.85;;;;;;;;;;5039911;28;20033;-53
2024/01/12 13:49:09;;;;;;;13.20;8.98;;;;;;;;;;5038536;28;20044;-54
2024/01/12 13:51:34;;;;;;;13.90;8.63;;;;;;;;;;5047727;28;20095;-55
2024/01/12 13:54:03;;;;;;;13.60;9.18;;;;;;;;;;5046063;28;20119;-55
2024/01/12 13:56:28;;;;;;;12.77;9.15;;;;;;;;;;5043789;28;20037;-56
2024/01/12 13:58:57;;;;;;;11.45;8.82;;;;;;;;;;5046313;28;20021;-55
2024/01/12 14:01:22;;;;;;;12.00;8.60;;;;;;;;;;5046138;28;20037;-55
2024/01/12 14:03:48;;;;;;;13.38;8.85;;;;;;;;;;5040835;28;20496;-55
2024/01/12 14:06:13;;;;;;;13.25;9.25;;;;;;;;;;5046277;28;20029;-55
2024/01/12 14:08:38;;;;;;;12.52;8.98;;;;;;;;;;5044541;28;20033;-55
2024/01/12 14:11:04;;;;;;;12.10;9.02;;;;;;;;;;5047895;28;20123;-54
2024/01/12 14:13:29;;;;;;;11.73;8.40;;;;;;;;;;5043572;28;20099;-55
2024/01/12 14:15:54;;;;;;;13.05;9.25;;;;;;;;;;5028544;28;20033;-55
2024/01/12 14:18:20;;;;;;;13.52;9.57;;;;;;;;;;5041529;28;20036;-55
2024/01/12 14:20:46;;;;;;;12.65;9.05;;;;;;;;;;5047606;28;20025;-56
2024/01/12 14:23:11;;;;;;;12.95;8.93;;;;;;;;;;5029853;28;20048;-55
2024/01/12 14:25:37;;;;;;;13.43;8.77;;;;;;;;;;5044859;28;20049;-55
2024/01/12 14:28:02;;;;;;;12.18;8.80;;;;;;;;;;5057033;28;20041;-55
2024/01/12 14:30:28;;;;;;;13.60;9.18;;;;;;;;;;5046483;28;20033;-55
2024/01/12 14:32:53;;;;;;;13.27;9.35;;;;;;;;;;5049570;28;20040;-54
2024/01/12 14:35:19;;;;;;;14.13;9.25;;;;;;;;;;5028348;28;20033;-56
2024/01/12 14:37:44;;;;;;;12.18;8.73;;;;;;;;;;5049498;28;20142;-55
2024/01/12 14:40:10;;;;;;;12.48;9.30;;;;;;;;;;5055717;28;20043;-56
2024/01/12 14:42:36;;;;;;;11.10;8.43;;;;;;;;;;5053902;28;20060;-56
2024/01/12 14:45:04;;;;;;;12.68;8.80;;;;;;;;;;5045130;28;20540;-56
2024/01/12 14:47:30;;;;;;;12.63;9.05;;;;;;;;;;5036569;28;20037;-56
2024/01/12 14:49:55;;;;;;;12.65;9.13;;;;;;;;;;5031826;28;20029;-56
2024/01/12 14:52:20;;;;;;;12.25;8.50;;;;;;;;;;5048127;28;20032;-55
2024/01/12 14:54:46;;;;;;;12.40;9.18;;;;;;;;;;5051420;28;20484;-56
2024/01/12 14:57:11;;;;;;;14.88;9.65;;;;;;;;;;5061648;28;20509;-55
2024/01/12 14:59:37;;;;;;;12.10;8.85;;;;;;;;;;5046582;28;20041;-55
2024/01/12 15:02:02;;;;;;;12.40;8.68;;;;;;;;;;5037304;28;20041;-55
2024/01/12 15:04:28;;;;;;;13.73;9.23;;;;;;;;;;5042720;28;20040;-55
2024/01/12 15:06:53;;;;;;;14.10;8.88;;;;;;;;;;5044483;28;20053;-55
2024/01/12 15:09:18;;;;;;;12.20;8.52;;;;;;;;;;5047137;28;20444;-56
2024/01/12 15:11:47;;;;;;;13.85;9.43;;;;;;;;;;5046371;28;20033;-55
2024/01/12 15:14:13;;;;;;;12.70;8.85;;;;;;;;;;5046171;28;20063;-55
2024/01/12 15:16:38;;;;;;;11.07;8.20;;;;;;;;;;5045743;28;20420;-54
2024/01/12 15:19:04;;;;;;;13.00;9.27;;;;;;;;;;5045922;28;20041;-54
2024/01/12 15:21:29;;;;;;;13.45;9.45;;;;;;;;;;5043911;28;20140;-54
2024/01/12 15:23:54;;;;;;;12.73;8.80;;;;;;;;;;5046088;28;20037;-54
2024/01/12 15:26:20;;;;;;;14.30;9.40;;;;;;;;;;5046259;28;20049;-55
2024/01/12 15:28:45;;;;;;;13.05;8.75;;;;;;;;;;5046284;28;20451;-57
2024/01/12 15:31:10;;;;;;;13.02;9.35;;;;;;;;;;5041720;28;20500;-55
2024/01/12 15:33:36;;;;;;;13.18;9.13;;;;;;;;;;5044500;28;20120;-57
2024/01/12 15:36:01;;;;;;;13.73;8.82;;;;;;;;;;5041209;28;20120;-55
2024/01/12 15:38:26;;;;;;;14.65;9.05;;;;;;;;;;5040186;28;20041;-55
2024/01/12 15:40:52;;;;;;;11.73;8.82;;;;;;;;;;5045474;28;20040;-54
2024/01/12 15:43:17;;;;;;;11.82;8.30;;;;;;;;;;5028512;28;20041;-55
2024/01/12 15:45:42;;;;;;;13.13;9.00;;;;;;;;;;5046186;28;20048;-56
2024/01/12 15:48:08;;;;;;;12.63;9.02;;;;;;;;;;5046372;28;20025;-55
2024/01/12 15:50:33;;;;;;;12.65;8.63;;;;;;;;;;5052573;28;20037;-55
2024/01/12 15:52:58;;;;;;;13.70;9.88;;;;;;;;;;5045640;28;20044;-56
2024/01/12 15:55:24;;;;;;;12.93;8.93;;;;;;;;;;5046223;28;20048;-55
2024/01/12 15:57:49;;;;;;;11.80;8.43;;;;;;;;;;5046512;28;20083;-55
2024/01/12 16:00:15;;;;;;;13.02;9.23;;;;;;;;;;5039621;28;20101;-55
2024/01/12 16:02:40;;;;;;;12.68;8.57;;;;;;;;;;5047671;28;20115;-55
2024/01/12 16:05:05;;;;;;;11.90;8.93;;;;;;;;;;5043868;28;20531;-55
2024/01/12 16:07:31;;;;;;;13.05;8.57;;;;;;;;;;5043705;28;20088;-55
2024/01/12 16:09:56;;;;;;;12.75;8.70;;;;;;;;;;5028122;28;20058;-56
2024/01/12 16:12:21;;;;;;;12.35;9.05;;;;;;;;;;5045883;28;20636;-56
2024/01/12 16:14:47;;;;;;;14.15;8.95;;;;;;;;;;5045967;28;20120;-56